Rechercher aéroport 
image banner adimage banner adimage banner ad
image banner ad

CL23 - Jones/Ag-Viation

Situé à Biggs, United States

ICAO - CL23, IATA -

Données fournies par Airmate  

Information générale

Coordonnées: N39°27'35" W121°41'46"
Élévation : 109 feet MSL.
Variation magnétique : 17° East
Voir autres Aéroports à California

Données opérationnelles

Special qualification required
Heure actuelle UTC:
Heure actuelle locale:
Météo à : KOVE - Oroville Muni ( 7 km )
METAR: KOVE 020453Z AUTO 15011KT 10SM CLR 31/11 A2997 RMK AO2 SLP148 T03060106
Voir NOTAMs / SUP AIP / TFR affectant cet aéroport [VIEW]
Fréquences de communication: [VIEW]

Pistes:

Identifiant RWYQFULongueur (ft)Largeur (ft)SurfaceLDA (ft)
15260030ASPH
33260030ASPH

Coordonnées de l'aéroport

Adresse: Biggs United States

Vue satellite de CL23